West Bloomfield, MI (48323)

3:34 AM EDT on September 04, 2015 (GMT -0400)
Shenandoah Golf Estates | | Change Station
CLOSE
Current Station
Personal Weather Station
Location: West Bloomfield, MI
Elevation: 994 ft
Nearby Weather Stations

Elev 994 ft 42.56 °N, 83.39 °W | Updated 2 seconds ago

Overcast
Overcast
67.2 °F
Feels Like 67.2 °F
N
2.0
Wind Variable Wind from SE
Gusts 2.0 mph

Today
High -- | Low -- °F
--% Chance of Precip.
Yesterday
High -- | Low -- °F
Precip. -- in
7:01 AM 8:03 PM
Waning Gibbous, 62% visible
Pressure 29.94 in
Visibility 7.0 miles
Clouds Overcast 500 ft
Dew Point 67 °F
Humidity 98%
Rainfall 0.11 in
Snow Depth Not available.
UV 0 out of 12
Pollen 9.70 out of 12
Air Quality Not available.
Flu Activity Not available.
METAR KPTK 040653Z AUTO 17006KT 7SM OVC005 20/19 A2996 RMK AO2 CIG 004V008 SLP139 T02000194 $
Pressure 29.94 in
Visibility 7.0 miles
Clouds Overcast 500 ft
Dew Point 67 °F
Humidity 98%
Rainfall 0.11 in
Snow Depth Not available.
UV 0 out of 12
Pollen 9.70 out of 12
Air Quality Not available.
Flu Activity Not available.
METAR KPTK 040653Z AUTO 17006KT 7SM OVC005 20/19 A2996 RMK AO2 CIG 004V008 SLP139 T02000194 $

10-Day Weather Forecast

×

Almanac

Astronomy

Sep. 04, 2015 Rise Set
Actual Time
Civil Twilight
Nautical Twilight
Astronomical Twilight
Moon
Length of Visible Light
Length of Day
Tomorrow will be .
, % of the Moon is Illuminated

Today's Extremes

State Highs State Lows

Community

WunderPhotos

Upload Photos

1,852,132 photos uploaded!

WunderBlogs® & News

Nearby

Air Quality

  Air Quality AQ Index Pollutant
Not available.

Snow Depth

Station Depth Elevation

Earthquake Activity

City Distance Mag. Time & Date
Minimum magnitude displayed is 2.5.

Coastal Water Temperatures

Place Temperature

Stations

Nearby Weather Stations

Station Location Temp. Windchill Dew Point Humidity Wind Precip. Elev Updated Type